Welcome to our new website - Welkom op onze vernieuwde website - Bienvenue sur notre nouveau site web - Willkommen auf unserer neuen Website

2017-02-10 Eigen fijnstof metingen toegevoegd
2017-02-14 Storing windsnelheid is opgelost.

Lokaal brand risico:
CBI


Regionaal brand risico: Meer informatie


Weerstation
Sluispark-LeuvenLeuven-Sluispark



Het weer levert geen direct gevaar op.    Er zijn geen waarschuwingen afgegeven.

Nabijgelegen vliegvelden - METAR rapporten

   
EBBR - Wilsele bij Leuven
Gewijzigd: 26-04-2018 03:20
Gedeeltelijk bewolkt    Wind: WZW 25.9 km/h
Gedeeltelijk bewolkt
Wind: Wind: WZW 25.9 km/h
Temperatuur: 9°C
Voelt als: 6°C
Dauwpunt: 5°C
Vochtigheid: 76%
Barometer: 1014 hPa
Bewolking: Gedeeltelijk bewolkt
Zicht: meer dan 10 km
Bewolking: Licht bewolkt 640.1 m,
Gedeeltelijk bewolkt 701 m
EBBR 260120Z 24014KT 9999 FEW021 SCT023 09/05 Q1014 NOSIG
EBAW - Antwerp
Gewijzigd: 26-04-2018 03:20
Grotendeels bewolkt    Wind: WZW 18.5 km/h
Grotendeels bewolkt
Wind: Wind: WZW 18.5 km/h
Temperatuur: 10°C
Voelt als: 8°C
Dauwpunt: 6°C
Vochtigheid: 76%
Barometer: 1014 hPa
Bewolking: Grotendeels bewolkt
Zicht: meer dan 10 km
Bewolking: Licht bewolkt 548.6 m,
Gedeeltelijk bewolkt 1036.3 m,
Grotendeels bewolkt 1158.2 m
EBAW 260120Z AUTO 24010KT 9999 // FEW018/// SCT034/// BKN038/// 10/06 Q1014
EBLG - Li├Ęge
Gewijzigd: 26-04-2018 03:20
Gedeeltelijk bewolkt    Wind: WZW 20.4 km/h
Gedeeltelijk bewolkt
Wind: Wind: WZW 20.4 km/h
Temperatuur: 8°C
Voelt als: 5°C
Dauwpunt: 5°C
Vochtigheid: 82%
Barometer: 1015 hPa
Bewolking: Gedeeltelijk bewolkt
Zicht: meer dan 10 km
Bewolking: Gedeeltelijk bewolkt 640.1 m
EBLG 260120Z 24011KT 9999 SCT021 08/05 Q1015 NOSIG
EBCV - Mons/Bergen
Gewijzigd: 26-04-2018 03:25
Gedeeltelijk bewolkt    Wind: ZW 20.4 km/h
Gedeeltelijk bewolkt
Wind: Wind: ZW 20.4 km/h
Temperatuur: 8°C
Voelt als: 5°C
Dauwpunt: 6°C
Vochtigheid: 87%
Barometer: 1016 hPa
Bewolking: Gedeeltelijk bewolkt
Zicht: meer dan 10 km
Bewolking: Gedeeltelijk bewolkt 731.5 m,
Gedeeltelijk bewolkt 2164.1 m
EBCV 260125Z AUTO 23011KT 9999 SCT024/// SCT071/// 08/06 Q1016 WHT
EHBK - Maastricht
Gewijzigd: 26-04-2018 03:25
Bewolking    Wind: ZW 24.1 km/h
Bewolking
Wind: Wind: ZW 24.1 km/h
Temperatuur: 9°C
Voelt als: 6°C
Dauwpunt: 5°C
Vochtigheid: 76%
Barometer: 1014 hPa
Bewolking: Bewolking
Zicht: meer dan 10 km
Bewolking: Bewolking 579.1 m
EHBK 260125Z AUTO 23013KT 200V270 9999 OVC019 09/05 Q1014
ELLX - Luxemburg
Gewijzigd: 26-04-2018 03:20
Helder    Wind: ZW 11.1 km/h
Helder
Wind: Wind: ZW 11.1 km/h
Temperatuur: 5°C
Voelt als: 2°C
Dauwpunt: 3°C
Vochtigheid: 87%
Barometer: 1016 hPa
Bewolking: Helder
Zicht: meer dan 10 km
Bewolking: Helder
ELLX 260120Z AUTO 23006KT 9999 NCD 05/03 Q1016 NOSIG
EBOS - Oostende
Gewijzigd: 26-04-2018 03:20
Licht bewolkt    Wind: WZW 35.2 km/h
Licht bewolkt
Wind: Wind: WZW 35.2 km/h
Temperatuur: 9°C
Voelt als: 5°C
Dauwpunt: 5°C
Vochtigheid: 76%
Barometer: 1014 hPa
Bewolking: Licht bewolkt
Zicht: meer dan 10 km
Bewolking: Licht bewolkt 518.2 m
EBOS 260120Z 25019KT 9999 FEW017 09/05 Q1014 TEMPO 25020G30KT
  

Script ontwikkeld door  Saratoga-weather.org Aangepast voor de template door  Weerstation Leuven

U vindt ons ook hier:

UK Metoffice

WeatherCloud

European Weather Network

Weather Underground

Benelux Weather Network

AWEKAS

WeatherlinkIP

Het Weer Aktueel

Apparatuur in gebruik:

Weer-station
Davis VP2 weatherstation

Weer-programma
Meteobridge

Weer-computer
Asus WL -330N3G

Webleverancier
Robohost

Davis VP2 weatherstation

Meteobridge

Asus WL -330N3G

Robohost